Time;durP1;ratioP1;P1;durP2;ratioP2;P2;SDS_P1;SDS_P2;PMS_P1;PMS_P2;Temp;Humidity;BMP_temperature;BMP_pressure;BME280_temperature;BME280_humidity;BME280_pressure;Samples;Min_cycle;Max_cycle;Signal;HPM_P1;HPM_P2
2021/03/14 00:00:40;;;;;;;0.70;0.60;;;7.00;1.00;;;;;;5119837;27;20446;-78
2021/03/14 00:03:30;;;;;;;0.70;0.50;;;6.90;1.00;;;;;;5124224;27;20566;-77
2021/03/14 00:06:18;;;;;;;0.50;0.50;;;7.00;1.00;;;;;;5113579;27;20279;-76
2021/03/14 00:09:06;;;;;;;0.70;0.50;;;7.50;1.00;;;;;;5111013;27;20468;-77
2021/03/14 00:11:54;;;;;;;0.80;0.50;;;7.00;1.00;;;;;;5115454;27;20477;-78
2021/03/14 00:14:42;;;;;;;0.60;0.47;;;6.80;1.00;;;;;;5123025;27;20207;-76
2021/03/14 00:17:29;;;;;;;0.52;0.52;;;6.70;1.00;;;;;;5121221;27;20243;-79
2021/03/14 00:20:18;;;;;;;0.50;0.50;;;6.50;33.90;;;;;;5121164;27;20222;-79
2021/03/14 00:23:06;;;;;;;0.47;0.40;;;6.50;99.90;;;;;;5116773;27;20211;-78
2021/03/14 00:25:54;;;;;;;0.70;0.50;;;6.60;71.90;;;;;;5130526;27;20204;-77
2021/03/14 00:28:42;;;;;;;0.60;0.60;;;6.80;1.00;;;;;;5123971;27;20281;-80
2021/03/14 00:31:29;;;;;;;0.60;0.60;;;6.90;1.00;;;;;;5111459;27;20227;-78
2021/03/14 00:34:20;;;;;;;0.60;0.60;;;7.00;1.00;;;;;;5118070;27;20202;-76
2021/03/14 00:37:08;;;;;;;0.60;0.50;;;7.40;1.00;;;;;;5120644;27;21056;-77
2021/03/14 00:39:55;;;;;;;0.90;0.50;;;7.30;1.00;;;;;;5126334;27;20483;-79
2021/03/14 00:42:43;;;;;;;0.60;0.50;;;7.30;1.00;;;;;;5118717;27;20277;-79
2021/03/14 00:45:48;;;;;;;0.90;0.40;;;7.20;99.90;;;;;;5120359;27;20209;-78
2021/03/14 00:48:49;;;;;;;0.43;0.40;;;7.30;99.90;;;;;;5123795;27;20887;-80
2021/03/14 00:51:37;;;;;;;0.50;0.50;;;7.30;99.90;;;;;;5126339;27;20875;-78
2021/03/14 00:54:24;;;;;;;0.40;0.40;;;7.20;99.90;;;;;;5128099;27;20250;-78
2021/03/14 00:57:12;;;;;;;0.60;0.60;;;7.10;99.90;;;;;;5118885;27;20430;-79
2021/03/14 00:59:59;;;;;;;0.60;0.50;;;7.00;99.90;;;;;;5128149;27;20705;-77
2021/03/14 01:02:48;;;;;;;0.90;0.45;;;6.80;99.90;;;;;;5131036;27;20782;-79
2021/03/14 01:05:35;;;;;;;0.47;0.43;;;6.70;99.90;;;;;;5122621;27;20203;-76
2021/03/14 01:08:23;;;;;;;0.88;0.40;;;6.80;99.90;;;;;;5115676;27;20470;-78
2021/03/14 01:11:11;;;;;;;0.57;0.50;;;6.70;99.90;;;;;;5113216;27;20254;-77
2021/03/14 01:13:58;;;;;;;0.40;0.40;;;6.60;99.90;;;;;;5112055;28;20210;-78
2021/03/14 01:16:46;;;;;;;0.82;0.40;;;6.50;99.90;;;;;;5131281;27;20598;-77
2021/03/14 01:19:34;;;;;;;0.40;0.40;;;6.50;99.90;;;;;;5111225;27;20204;-78
2021/03/14 01:22:22;;;;;;;0.50;0.50;;;6.50;1.00;;;;;;5122810;27;20204;-78
2021/03/14 01:25:14;;;;;;;0.50;0.40;;;6.10;1.00;;;;;;5120748;27;20231;-77
2021/03/14 01:28:02;;;;;;;0.40;0.40;;;6.10;1.00;;;;;;5126077;27;20709;-78
2021/03/14 01:30:49;;;;;;;0.40;0.40;;;6.10;1.00;;;;;;5129033;27;20202;-77
2021/03/14 01:33:37;;;;;;;0.50;0.50;;;6.10;1.00;;;;;;5130260;27;20209;-77
2021/03/14 01:36:25;;;;;;;0.68;0.50;;;6.20;1.00;;;;;;5124281;27;20199;-78
2021/03/14 01:39:16;;;;;;;0.40;0.40;;;6.10;1.00;;;;;;5124105;27;20234;-77
2021/03/14 01:42:04;;;;;;;1.20;0.50;;;6.40;1.00;;;;;;5128638;27;20220;-77
2021/03/14 01:44:52;;;;;;;0.40;0.40;;;6.30;1.00;;;;;;5123779;27;20210;-76
2021/03/14 01:47:42;;;;;;;0.40;0.40;;;6.50;1.00;;;;;;5128456;27;20273;-76
2021/03/14 01:50:31;;;;;;;0.50;0.50;;;6.40;1.00;;;;;;5124901;27;20293;-76
2021/03/14 01:53:20;;;;;;;0.40;0.40;;;6.60;1.00;;;;;;5118408;27;20703;-77
2021/03/14 01:56:08;;;;;;;0.50;0.50;;;6.70;1.00;;;;;;5124166;27;20199;-77
2021/03/14 01:58:56;;;;;;;0.40;0.40;;;6.80;1.00;;;;;;5112945;28;20233;-77
2021/03/14 02:01:43;;;;;;;0.40;0.40;;;6.90;1.00;;;;;;5110927;28;20197;-78
2021/03/14 02:04:31;;;;;;;0.82;0.45;;;7.10;1.00;;;;;;5122072;28;20467;-80
2021/03/14 02:07:18;;;;;;;0.40;0.40;;;7.10;1.00;;;;;;5130099;28;20578;-78
2021/03/14 02:10:09;;;;;;;0.80;0.40;;;7.10;99.90;;;;;;5116972;28;20210;-78
2021/03/14 02:13:01;;;;;;;0.40;0.40;;;7.10;99.90;;;;;;5117616;27;20230;-79
2021/03/14 02:15:53;;;;;;;0.40;0.40;;;7.20;99.90;;;;;;5120413;27;20220;-78
2021/03/14 02:18:43;;;;;;;0.40;0.40;;;7.20;99.90;;;;;;5122859;27;20518;-77
2021/03/14 02:21:33;;;;;;;0.38;0.38;;;7.70;99.90;;;;;;5135476;27;20443;-76
2021/03/14 02:24:25;;;;;;;0.52;0.50;;;7.10;99.90;;;;;;5120941;27;20204;-77
2021/03/14 02:27:14;;;;;;;0.70;0.70;;;7.10;99.90;;;;;;5117904;27;20200;-76
2021/03/14 02:30:06;;;;;;;0.40;0.40;;;6.90;99.90;;;;;;5126201;27;20488;-78
2021/03/14 02:32:54;;;;;;;0.40;0.40;;;7.00;99.90;;;;;;5129914;27;20216;-77
2021/03/14 02:35:44;;;;;;;0.40;0.40;;;7.10;99.90;;;;;;5127711;27;20209;-75
2021/03/14 02:38:31;;;;;;;0.70;0.40;;;7.20;99.90;;;;;;5124769;27;20466;-76
2021/03/14 02:41:19;;;;;;;0.95;0.50;;;7.20;99.90;;;;;;5133955;27;20204;-77
2021/03/14 02:44:11;;;;;;;0.50;0.40;;;7.20;99.90;;;;;;5125453;27;20204;-77
2021/03/14 02:46:59;;;;;;;0.80;0.40;;;7.10;99.90;;;;;;5123087;27;20213;-78
2021/03/14 02:49:49;;;;;;;0.40;0.40;;;7.10;99.90;;;;;;5131288;27;20199;-77
2021/03/14 02:52:38;;;;;;;0.52;0.40;;;7.10;99.90;;;;;;5132162;27;20212;-77
2021/03/14 02:55:27;;;;;;;0.60;0.52;;;7.20;99.90;;;;;;5125469;27;20663;-77
2021/03/14 02:58:15;;;;;;;0.40;0.40;;;7.20;99.90;;;;;;5115593;27;20226;-77
2021/03/14 03:01:06;;;;;;;0.60;0.50;;;7.10;99.90;;;;;;5125612;27;20209;-77
2021/03/14 03:03:58;;;;;;;0.50;0.50;;;7.00;99.90;;;;;;5122355;27;20201;-77
2021/03/14 03:06:46;;;;;;;1.47;0.40;;;7.00;99.90;;;;;;5130467;27;20209;-78
2021/03/14 03:09:34;;;;;;;0.60;0.40;;;7.00;99.90;;;;;;5126456;27;20810;-79
2021/03/14 03:12:24;;;;;;;0.40;0.40;;;6.90;99.90;;;;;;5115426;27;20233;-78
2021/03/14 03:15:14;;;;;;;1.67;0.50;;;6.90;99.90;;;;;;5113610;28;20444;-77
2021/03/14 03:18:03;;;;;;;0.40;0.40;;;6.90;99.90;;;;;;5122525;27;20294;-80
2021/03/14 03:20:52;;;;;;;0.40;0.40;;;6.90;99.90;;;;;;5113720;28;20281;-78
2021/03/14 03:23:40;;;;;;;0.40;0.40;;;6.90;99.90;;;;;;5114449;28;20640;-79
2021/03/14 03:26:28;;;;;;;0.40;0.40;;;7.30;99.90;;;;;;5130976;27;20447;-78
2021/03/14 03:29:17;;;;;;;0.40;0.40;;;7.10;99.90;;;;;;5130942;27;20819;-77
2021/03/14 03:32:05;;;;;;;0.40;0.40;;;6.90;99.90;;;;;;5132308;27;20216;-79
2021/03/14 03:34:54;;;;;;;0.40;0.40;;;6.80;99.90;;;;;;5126859;27;20666;-77
2021/03/14 03:37:42;;;;;;;0.40;0.40;;;6.80;99.90;;;;;;5116494;27;20216;-78
2021/03/14 03:40:31;;;;;;;0.80;0.45;;;6.90;99.90;;;;;;5129999;27;20816;-78
2021/03/14 03:43:23;;;;;;;0.40;0.40;;;6.90;99.90;;;;;;5125797;27;20213;-82
2021/03/14 03:46:13;;;;;;;0.60;0.60;;;6.90;99.90;;;;;;5133977;27;20252;-77
2021/03/14 03:49:02;;;;;;;0.40;0.40;;;6.80;99.90;;;;;;5131353;27;20227;-78
2021/03/14 03:51:52;;;;;;;0.60;0.50;;;6.80;99.90;;;;;;5121860;27;20246;-78
2021/03/14 03:54:40;;;;;;;0.50;0.50;;;6.90;99.90;;;;;;5127680;27;20278;-78
2021/03/14 03:57:28;;;;;;;0.50;0.50;;;6.90;99.90;;;;;;5133900;27;20219;-76
2021/03/14 04:00:17;;;;;;;0.40;0.40;;;7.10;99.90;;;;;;5128937;27;20208;-77
2021/03/14 04:03:05;;;;;;;0.60;0.60;;;6.90;99.90;;;;;;5123014;27;20203;-77
2021/03/14 04:05:57;;;;;;;0.40;0.40;;;6.70;99.90;;;;;;5116949;27;20199;-76
2021/03/14 04:08:47;;;;;;;0.50;0.50;;;6.80;99.90;;;;;;5114306;27;20229;-77
2021/03/14 04:11:35;;;;;;;0.50;0.50;;;6.70;99.90;;;;;;5122155;27;20264;-77
2021/03/14 04:14:23;;;;;;;0.80;0.80;;;6.80;99.90;;;;;;5121301;27;20277;-77
2021/03/14 04:17:11;;;;;;;0.50;0.50;;;6.70;99.90;;;;;;5125986;27;20207;-79
2021/03/14 04:20:01;;;;;;;0.50;0.50;;;6.60;99.90;;;;;;5123223;27;20203;-76
2021/03/14 04:22:54;;;;;;;0.50;0.50;;;6.60;99.90;;;;;;5142450;27;20212;-78
2021/03/14 04:25:43;;;;;;;0.50;0.50;;;6.60;99.90;;;;;;5131604;27;20212;-77
2021/03/14 04:28:33;;;;;;;0.50;0.50;;;6.90;99.90;;;;;;5134169;27;20471;-78
2021/03/14 04:31:22;;;;;;;0.77;0.50;;;6.60;99.90;;;;;;5131628;27;20275;-79
2021/03/14 04:34:12;;;;;;;0.60;0.60;;;6.70;99.90;;;;;;5138166;27;20224;-77
2021/03/14 04:37:00;;;;;;;0.52;0.45;;;7.00;99.90;;;;;;5140162;27;20198;-77
2021/03/14 04:39:48;;;;;;;0.50;0.50;;;6.80;99.90;;;;;;5131107;27;20201;-78
2021/03/14 04:42:39;;;;;;;1.20;0.60;;;7.10;99.90;;;;;;5138703;27;20202;-78
2021/03/14 04:45:27;;;;;;;0.43;0.43;;;6.80;99.90;;;;;;5138520;27;20210;-77
2021/03/14 04:48:17;;;;;;;0.50;0.50;;;6.80;99.90;;;;;;5141189;27;20211;-77
2021/03/14 04:51:05;;;;;;;0.80;0.40;;;6.90;99.90;;;;;;5126765;27;20222;-77
2021/03/14 04:53:54;;;;;;;0.50;0.50;;;6.80;99.90;;;;;;5134542;27;20221;-79
2021/03/14 04:56:43;;;;;;;0.50;0.50;;;6.70;99.90;;;;;;5139157;27;20205;-79
2021/03/14 04:59:33;;;;;;;0.40;0.40;;;6.80;99.90;;;;;;5134223;27;20257;-81
2021/03/14 05:02:21;;;;;;;0.40;0.40;;;6.70;99.90;;;;;;5120853;27;20200;-79
2021/03/14 05:05:12;;;;;;;0.60;0.50;;;6.60;99.90;;;;;;5121678;27;20205;-78
2021/03/14 05:08:00;;;;;;;0.50;0.50;;;6.70;99.90;;;;;;5115251;28;20590;-77
2021/03/14 05:10:50;;;;;;;0.85;0.50;;;6.50;99.90;;;;;;5119117;27;20220;-77
2021/03/14 05:13:39;;;;;;;0.60;0.50;;;6.40;99.90;;;;;;5122672;27;20218;-77
2021/03/14 05:16:28;;;;;;;0.40;0.40;;;6.30;99.90;;;;;;5125791;27;20257;-78
2021/03/14 05:19:17;;;;;;;0.80;0.40;;;6.30;99.90;;;;;;5111008;27;20230;-79
2021/03/14 05:22:20;;;;;;;0.40;0.40;;;6.40;99.90;;;;;;5123203;27;20960;-76
2021/03/14 05:25:09;;;;;;;0.50;0.50;;;6.50;99.90;;;;;;5117046;27;20209;-77
2021/03/14 05:27:58;;;;;;;0.90;0.65;;;6.50;99.90;;;;;;5130560;27;20233;-78
2021/03/14 05:30:45;;;;;;;0.43;0.43;;;6.50;99.90;;;;;;5133588;27;20556;-79
2021/03/14 05:33:34;;;;;;;0.40;0.40;;;6.90;99.90;;;;;;5132417;27;20235;-79
2021/03/14 05:36:23;;;;;;;1.15;0.50;;;6.50;99.90;;;;;;5133917;27;20213;-77
2021/03/14 05:39:10;;;;;;;0.60;0.50;;;6.40;99.90;;;;;;5132102;27;20238;-77
2021/03/14 05:41:59;;;;;;;0.47;0.47;;;6.30;99.90;;;;;;5121513;27;20215;-77
2021/03/14 05:44:47;;;;;;;0.50;0.50;;;6.20;99.90;;;;;;5115761;27;20207;-77
2021/03/14 05:47:34;;;;;;;0.50;0.50;;;6.20;1.00;;;;;;5109811;28;20236;-77
2021/03/14 05:50:25;;;;;;;0.55;0.50;;;6.50;1.00;;;;;;5125739;27;20197;-74
2021/03/14 05:53:15;;;;;;;1.23;0.50;;;5.90;1.00;;;;;;5118718;27;20585;-76
2021/03/14 05:56:03;;;;;;;0.50;0.50;;;6.10;1.00;;;;;;5125596;27;20212;-78
2021/03/14 05:58:51;;;;;;;0.70;0.70;;;6.20;1.00;;;;;;5120194;27;20235;-77
2021/03/14 06:01:40;;;;;;;0.60;0.60;;;6.20;99.90;;;;;;5118011;27;20212;-77
2021/03/14 06:04:30;;;;;;;0.65;0.60;;;6.20;99.90;;;;;;5117228;28;20210;-77
2021/03/14 06:07:19;;;;;;;2.25;0.80;;;6.40;99.90;;;;;;5121363;28;20202;-77
2021/03/14 06:10:08;;;;;;;1.70;0.90;;;6.50;99.90;;;;;;5129575;28;20210;-77
2021/03/14 06:12:55;;;;;;;1.05;0.60;;;6.30;99.90;;;;;;5132212;28;20216;-78
2021/03/14 06:15:43;;;;;;;1.50;0.80;;;6.30;99.90;;;;;;5120580;28;20206;-79
2021/03/14 06:18:30;;;;;;;0.80;0.70;;;6.30;99.90;;;;;;5114069;28;20222;-77
2021/03/14 06:21:23;;;;;;;1.38;0.70;;;6.40;99.90;;;;;;5123405;28;20208;-78
2021/03/14 06:24:12;;;;;;;0.95;0.80;;;6.40;99.90;;;;;;5115871;28;20207;-76
2021/03/14 06:27:00;;;;;;;1.85;0.85;;;6.40;99.90;;;;;;5123666;28;20224;-77
2021/03/14 06:29:47;;;;;;;0.82;0.75;;;6.20;99.90;;;;;;5125159;28;20214;-79
2021/03/14 06:32:35;;;;;;;0.90;0.80;;;6.30;99.90;;;;;;5130504;28;20226;-77
2021/03/14 06:35:23;;;;;;;1.20;0.82;;;6.40;99.90;;;;;;5127093;28;20499;-76
2021/03/14 06:38:18;;;;;;;2.58;0.70;;;6.50;99.90;;;;;;5123497;28;20230;-77
2021/03/14 06:41:15;;;;;;;0.60;0.60;;;6.60;99.90;;;;;;5129525;28;20207;-79
2021/03/14 06:44:04;;;;;;;1.25;0.80;;;6.50;99.90;;;;;;5126000;28;20564;-77
2021/03/14 06:46:52;;;;;;;1.52;0.80;;;6.50;99.90;;;;;;5122282;28;20876;-76
2021/03/14 06:49:40;;;;;;;1.50;0.80;;;6.30;99.90;;;;;;5112161;28;20302;-77
2021/03/14 06:52:28;;;;;;;1.20;1.10;;;6.50;99.90;;;;;;5113072;28;20223;-76
2021/03/14 06:55:26;;;;;;;2.15;0.80;;;6.40;99.90;;;;;;5130068;28;20215;-76
2021/03/14 06:58:22;;;;;;;0.80;0.80;;;6.50;99.90;;;;;;5131561;28;21019;-78
2021/03/14 07:01:15;;;;;;;1.60;0.70;;;6.50;99.90;;;;;;5126660;27;20202;-77
2021/03/14 07:04:03;;;;;;;1.52;0.80;;;6.70;99.90;;;;;;5119174;27;20205;-76
2021/03/14 07:06:50;;;;;;;2.08;1.30;;;6.70;99.90;;;;;;5123749;27;20602;-73
2021/03/14 07:09:38;;;;;;;1.38;0.90;;;6.70;99.90;;;;;;5112409;27;20209;-72
2021/03/14 07:12:28;;;;;;;1.50;0.88;;;6.70;99.90;;;;;;5119461;27;20225;-75
2021/03/14 07:15:19;;;;;;;3.00;0.70;;;6.60;99.90;;;;;;5114368;27;20642;-76
2021/03/14 07:18:06;;;;;;;0.93;0.70;;;6.80;99.90;;;;;;5127719;27;20232;-75
2021/03/14 07:20:55;;;;;;;1.90;0.73;;;6.90;99.90;;;;;;5120809;27;20961;-76
2021/03/14 07:23:47;;;;;;;0.85;0.85;;;6.80;99.90;;;;;;5114793;27;20673;-75
2021/03/14 07:26:46;;;;;;;2.17;0.80;;;6.60;99.90;;;;;;5123514;27;20567;-75
2021/03/14 07:29:34;;;;;;;3.22;1.30;;;6.60;99.90;;;;;;5117061;27;20312;-75
2021/03/14 07:32:24;;;;;;;4.72;1.20;;;6.80;99.90;;;;;;5119732;27;20752;-76
2021/03/14 07:35:12;;;;;;;2.55;1.20;;;6.70;99.90;;;;;;5114799;27;20205;-76
2021/03/14 07:38:00;;;;;;;1.20;1.00;;;6.60;99.90;;;;;;5120797;27;20240;-75
2021/03/14 07:40:47;;;;;;;2.97;0.90;;;6.60;99.90;;;;;;5114169;27;20837;-75
2021/03/14 07:43:35;;;;;;;2.88;1.13;;;6.50;99.90;;;;;;5124133;27;20568;-75
2021/03/14 07:46:25;;;;;;;5.03;0.80;;;6.60;99.90;;;;;;5130253;27;20549;-78
2021/03/14 07:49:15;;;;;;;3.03;1.08;;;6.70;99.90;;;;;;5129391;27;20497;-76
2021/03/14 07:52:07;;;;;;;1.10;0.80;;;6.80;99.90;;;;;;5118027;27;20599;-75
2021/03/14 07:54:59;;;;;;;3.45;0.90;;;6.70;99.90;;;;;;5113659;27;20209;-75
2021/03/14 07:57:49;;;;;;;1.35;0.98;;;6.70;99.90;;;;;;5118813;27;20709;-75
2021/03/14 08:00:37;;;;;;;1.88;1.25;;;6.70;99.90;;;;;;5124347;27;20388;-75
2021/03/14 08:03:37;;;;;;;1.67;0.98;;;6.60;99.90;;;;;;5131184;27;20216;-75
2021/03/14 08:06:53;;;;;;;2.17;1.20;;;6.60;99.90;;;;;;5124213;27;20220;-77
2021/03/14 08:09:46;;;;;;;8.30;1.13;;;6.70;99.90;;;;;;5117583;27;20211;-75
2021/03/14 08:12:37;;;;;;;1.07;0.70;;;6.70;99.90;;;;;;5121357;27;20475;-77
2021/03/14 08:15:26;;;;;;;1.55;1.10;;;7.10;99.90;;;;;;5115542;27;20456;-74
2021/03/14 08:18:36;;;;;;;3.63;0.98;;;6.80;99.90;;;;;;5112275;27;20231;-73
2021/03/14 08:21:38;;;;;;;4.30;0.90;;;6.90;99.90;;;;;;5117982;27;20592;-74
2021/03/14 08:24:33;;;;;;;3.07;1.13;;;7.10;99.90;;;;;;5115415;27;20473;-76
2021/03/14 08:27:31;;;;;;;1.90;1.00;;;7.20;99.90;;;;;;5122746;27;20458;-75
2021/03/14 08:30:48;;;;;;;2.85;1.15;;;7.20;99.90;;;;;;5124120;27;20215;-75
2021/03/14 08:33:44;;;;;;;2.50;0.90;;;7.40;99.90;;;;;;5120428;27;20236;-75
2021/03/14 08:36:34;;;;;;;2.23;1.00;;;7.70;99.90;;;;;;5114219;27;20593;-75
2021/03/14 08:39:23;;;;;;;1.97;0.80;;;8.40;99.90;;;;;;5113100;27;20473;-75
2021/03/14 08:42:11;;;;;;;2.30;0.80;;;8.00;99.90;;;;;;5120456;27;21290;-75
2021/03/14 08:45:19;;;;;;;7.80;1.27;;;8.00;99.90;;;;;;5118590;27;20446;-75
2021/03/14 08:48:07;;;;;;;1.47;0.80;;;8.00;99.90;;;;;;5125928;27;20477;-75
2021/03/14 08:50:55;;;;;;;1.00;0.90;;;8.00;99.90;;;;;;5118183;27;20436;-76
2021/03/14 08:53:42;;;;;;;3.90;1.30;;;8.00;99.90;;;;;;5114152;27;20465;-74
2021/03/14 08:56:30;;;;;;;1.87;1.10;;;7.90;99.90;;;;;;5118821;27;20451;-74
2021/03/14 08:59:20;;;;;;;2.87;0.80;;;7.80;99.90;;;;;;5120757;27;20540;-74
2021/03/14 09:02:07;;;;;;;1.33;0.80;;;7.50;99.90;;;;;;5118835;27;20762;-75
2021/03/14 09:05:12;;;;;;;2.00;0.80;;;7.40;99.90;;;;;;5113841;27;20460;-75
2021/03/14 09:08:01;;;;;;;1.77;0.70;;;7.10;99.90;;;;;;5107109;27;20580;-74
2021/03/14 09:10:48;;;;;;;2.72;0.75;;;7.10;99.90;;;;;;5118235;27;20462;-75
2021/03/14 09:13:36;;;;;;;2.33;0.70;;;7.10;99.90;;;;;;5115253;27;20228;-74
2021/03/14 09:16:42;;;;;;;1.75;0.80;;;7.30;99.90;;;;;;5121244;27;20782;-75
2021/03/14 09:19:33;;;;;;;1.23;0.60;;;7.20;99.90;;;;;;5119990;27;20225;-76
2021/03/14 09:22:23;;;;;;;1.30;1.07;;;7.20;99.90;;;;;;5115497;27;20502;-75
2021/03/14 09:25:17;;;;;;;1.80;0.60;;;7.30;99.90;;;;;;5117308;27;20463;-75
2021/03/14 09:28:05;;;;;;;0.63;0.50;;;7.10;99.90;;;;;;5125268;27;21047;-75
2021/03/14 09:30:52;;;;;;;1.10;0.80;;;7.30;99.90;;;;;;5118479;27;20480;-77
2021/03/14 09:33:41;;;;;;;2.23;0.63;;;7.40;99.90;;;;;;5124966;27;20223;-75
2021/03/14 09:36:29;;;;;;;1.10;0.70;;;7.40;99.90;;;;;;5127374;27;20479;-78
2021/03/14 09:39:21;;;;;;;2.55;0.75;;;7.10;99.90;;;;;;5108985;28;20451;-75
2021/03/14 09:42:09;;;;;;;0.88;0.60;;;6.90;99.90;;;;;;5118438;27;20684;-76
2021/03/14 09:45:05;;;;;;;1.47;0.87;;;7.20;99.90;;;;;;5126914;27;20427;-74
2021/03/14 09:48:08;;;;;;;2.40;0.80;;;7.80;99.90;;;;;;5129834;27;20489;-76
2021/03/14 09:50:58;;;;;;;2.10;0.70;;;8.50;99.90;;;;;;5122658;27;20456;-78
2021/03/14 09:53:47;;;;;;;0.70;0.70;;;8.80;99.90;;;;;;5113970;27;20456;-76
2021/03/14 09:56:34;;;;;;;2.00;0.80;;;8.90;99.90;;;;;;5119384;27;20462;-75
2021/03/14 09:59:26;;;;;;;1.20;0.60;;;8.70;99.90;;;;;;5126252;27;20468;-75
2021/03/14 10:02:14;;;;;;;1.30;0.70;;;8.60;99.90;;;;;;5119671;27;21589;-75
2021/03/14 10:05:02;;;;;;;1.60;0.73;;;8.40;99.90;;;;;;5129445;27;20923;-76
2021/03/14 10:07:54;;;;;;;0.80;0.70;;;8.40;99.90;;;;;;5111221;28;20230;-75
2021/03/14 10:10:41;;;;;;;1.07;0.60;;;8.20;99.90;;;;;;5125218;27;20433;-75
2021/03/14 10:13:39;;;;;;;1.20;0.60;;;8.10;99.90;;;;;;5125935;27;21001;-74
2021/03/14 10:16:28;;;;;;;0.60;0.60;;;8.00;99.90;;;;;;5126343;27;20440;-77
2021/03/14 10:19:16;;;;;;;1.33;0.70;;;8.00;99.90;;;;;;5119607;27;21121;-78
2021/03/14 10:22:04;;;;;;;1.90;0.80;;;7.60;99.90;;;;;;5111603;27;20976;-75
2021/03/14 10:24:52;;;;;;;0.60;0.60;;;7.70;99.90;;;;;;5114186;28;20459;-76
2021/03/14 10:27:41;;;;;;;1.70;0.60;;;7.70;99.90;;;;;;5126676;28;21272;-79
2021/03/14 10:30:28;;;;;;;0.63;0.60;;;7.80;99.90;;;;;;5119464;28;20445;-77
2021/03/14 10:33:30;;;;;;;1.93;0.80;;;7.70;99.90;;;;;;5117210;28;20462;-76
2021/03/14 10:36:18;;;;;;;3.17;0.77;;;7.80;99.90;;;;;;5126577;27;20448;-76
2021/03/14 10:39:06;;;;;;;0.80;0.60;;;7.90;99.90;;;;;;5120906;27;20535;-77
2021/03/14 10:41:55;;;;;;;1.10;0.60;;;8.10;99.90;;;;;;5128336;27;20447;-76
2021/03/14 10:44:43;;;;;;;0.90;0.70;;;8.10;99.90;;;;;;5118795;27;20489;-74
2021/03/14 10:47:30;;;;;;;1.00;0.60;;;8.20;99.90;;;;;;5127147;27;20542;-76
2021/03/14 10:50:20;;;;;;;1.27;0.80;;;8.10;99.90;;;;;;5128592;27;20896;-75
2021/03/14 10:53:09;;;;;;;1.73;1.00;;;8.30;99.90;;;;;;5122828;27;20465;-75
2021/03/14 10:56:05;;;;;;;2.80;1.00;;;8.70;99.90;;;;;;5122011;27;20576;-76
2021/03/14 10:58:54;;;;;;;1.20;0.60;;;8.90;99.90;;;;;;5123081;27;20485;-74
2021/03/14 11:01:46;;;;;;;3.60;0.90;;;8.80;99.90;;;;;;5128556;27;20454;-76
2021/03/14 11:04:36;;;;;;;2.30;1.00;;;8.60;99.90;;;;;;5126411;27;20531;-78
2021/03/14 11:07:26;;;;;;;3.20;1.17;;;8.60;99.90;;;;;;5123243;27;20813;-75
2021/03/14 11:10:15;;;;;;;1.53;0.80;;;8.60;99.90;;;;;;5123797;27;20442;-75
2021/03/14 11:13:14;;;;;;;1.70;0.70;;;8.50;99.90;;;;;;5118300;27;20472;-76
2021/03/14 11:16:06;;;;;;;1.67;0.73;;;8.70;99.90;;;;;;5110942;27;20428;-77
2021/03/14 11:18:58;;;;;;;1.80;0.80;;;8.60;99.90;;;;;;5122225;27;20225;-74
2021/03/14 11:21:45;;;;;;;1.33;0.70;;;8.70;99.90;;;;;;5120922;27;20835;-75
2021/03/14 11:24:33;;;;;;;2.37;1.20;;;8.90;99.90;;;;;;5119430;27;20456;-77
2021/03/14 11:27:21;;;;;;;3.60;0.70;;;9.20;99.90;;;;;;5125979;27;21047;-76
2021/03/14 11:30:10;;;;;;;2.40;1.10;;;9.50;99.90;;;;;;5117930;27;20437;-76
2021/03/14 11:32:58;;;;;;;0.87;0.87;;;9.70;99.90;;;;;;5124878;27;20451;-75
2021/03/14 11:35:46;;;;;;;1.63;0.80;;;9.60;99.90;;;;;;5113983;27;20443;-75
2021/03/14 11:38:34;;;;;;;3.90;1.13;;;9.60;99.90;;;;;;5116402;27;20724;-76
2021/03/14 11:41:21;;;;;;;1.60;0.80;;;9.70;99.90;;;;;;5120120;27;20546;-76
2021/03/14 11:44:09;;;;;;;1.10;1.00;;;9.50;99.90;;;;;;5130731;27;20449;-76
2021/03/14 11:46:56;;;;;;;0.70;0.70;;;9.50;99.90;;;;;;5120668;27;20451;-75
2021/03/14 11:49:45;;;;;;;0.77;0.70;;;9.40;99.90;;;;;;5123307;27;20467;-75
2021/03/14 11:52:33;;;;;;;1.43;0.80;;;9.30;99.90;;;;;;5121898;27;20498;-76
2021/03/14 11:55:20;;;;;;;0.90;0.60;;;9.30;98.90;;;;;;5127904;27;20555;-77
2021/03/14 11:58:08;;;;;;;1.50;0.70;;;9.20;97.50;;;;;;5125697;27;20530;-74
2021/03/14 12:00:55;;;;;;;1.83;0.70;;;9.10;99.90;;;;;;5123416;27;20457;-76
2021/03/14 12:03:44;;;;;;;1.33;0.60;;;9.10;99.90;;;;;;5124225;27;20452;-73
2021/03/14 12:06:33;;;;;;;0.67;0.67;;;9.20;99.90;;;;;;5121622;27;20950;-73
2021/03/14 12:09:21;;;;;;;1.98;0.80;;;9.30;99.90;;;;;;5125292;27;20456;-77
2021/03/14 12:12:09;;;;;;;1.23;1.00;;;9.30;99.90;;;;;;5116608;27;20328;-76
2021/03/14 12:14:56;;;;;;;3.00;0.60;;;9.20;99.90;;;;;;5128553;27;20609;-74
2021/03/14 12:17:45;;;;;;;1.70;1.10;;;9.20;99.90;;;;;;5129722;27;20971;-73
2021/03/14 12:20:33;;;;;;;2.63;0.90;;;9.10;99.90;;;;;;5131572;27;21101;-74
2021/03/14 12:23:22;;;;;;;2.97;1.07;;;8.90;99.90;;;;;;5125141;27;20447;-74
2021/03/14 12:26:09;;;;;;;1.43;0.80;;;8.70;99.90;;;;;;5133528;27;20464;-76
2021/03/14 12:28:57;;;;;;;2.13;0.80;;;8.50;99.90;;;;;;5123322;27;20453;-75
2021/03/14 12:31:45;;;;;;;0.83;0.80;;;8.20;99.90;;;;;;5125740;27;20802;-76
2021/03/14 12:34:32;;;;;;;1.60;0.80;;;8.30;99.90;;;;;;5131422;27;21008;-76
2021/03/14 12:37:20;;;;;;;2.37;1.10;;;8.40;99.90;;;;;;5134565;27;20500;-76
2021/03/14 12:40:10;;;;;;;1.40;0.87;;;8.30;99.90;;;;;;5122872;27;20446;-76
2021/03/14 12:42:58;;;;;;;2.97;0.80;;;8.40;99.90;;;;;;5134593;27;20456;-74
2021/03/14 12:45:49;;;;;;;1.07;0.80;;;8.70;99.90;;;;;;5138684;27;20452;-75
2021/03/14 12:48:36;;;;;;;2.30;0.83;;;8.50;99.90;;;;;;5138027;27;20466;-76
2021/03/14 12:51:24;;;;;;;1.70;1.00;;;8.50;99.90;;;;;;5141870;27;20520;-79
2021/03/14 12:54:12;;;;;;;1.37;0.70;;;8.40;99.90;;;;;;5132863;27;20470;-76
2021/03/14 12:57:00;;;;;;;2.57;2.00;;;8.40;99.90;;;;;;5137084;27;20472;-74
2021/03/14 12:59:48;;;;;;;1.63;0.97;;;8.30;99.90;;;;;;5128116;27;20951;-74
2021/03/14 13:02:36;;;;;;;2.27;1.00;;;8.40;99.90;;;;;;5127424;27;20825;-74
2021/03/14 13:05:26;;;;;;;1.40;0.90;;;8.20;99.90;;;;;;5128710;27;20454;-74
2021/03/14 13:08:14;;;;;;;1.37;1.00;;;8.20;99.90;;;;;;5124619;27;20487;-74
2021/03/14 13:11:01;;;;;;;3.57;1.20;;;8.70;99.90;;;;;;5135829;27;20443;-76
2021/03/14 13:13:50;;;;;;;1.43;0.97;;;8.20;99.90;;;;;;5137638;27;20464;-77
2021/03/14 13:16:37;;;;;;;1.60;1.00;;;8.10;99.90;;;;;;5125769;27;20449;-77
2021/03/14 13:19:26;;;;;;;1.40;1.30;;;8.20;99.90;;;;;;5132717;27;21930;-77
2021/03/14 13:22:16;;;;;;;1.13;0.80;;;8.30;99.90;;;;;;5140806;27;20453;-74
2021/03/14 13:25:04;;;;;;;3.00;0.70;;;8.10;99.90;;;;;;5138590;27;20450;-74
2021/03/14 13:27:55;;;;;;;1.37;0.90;;;7.80;99.90;;;;;;5138622;27;20485;-74
2021/03/14 13:30:44;;;;;;;3.13;1.13;;;7.80;99.90;;;;;;5136560;27;20445;-75
2021/03/14 13:33:31;;;;;;;1.40;0.90;;;7.90;99.90;;;;;;5124747;27;20526;-75
2021/03/14 13:36:19;;;;;;;1.50;0.77;;;7.90;99.90;;;;;;5131337;27;20841;-71
2021/03/14 13:39:07;;;;;;;2.23;1.00;;;8.00;99.90;;;;;;5130277;27;20469;-74
2021/03/14 13:41:54;;;;;;;0.80;0.80;;;8.20;99.90;;;;;;5132812;27;20443;-74
2021/03/14 13:44:48;;;;;;;1.53;0.90;;;8.30;99.90;;;;;;5120756;27;20440;-74
2021/03/14 13:47:36;;;;;;;0.80;0.70;;;8.40;99.90;;;;;;5126272;27;20469;-76
2021/03/14 13:50:24;;;;;;;2.57;0.70;;;8.00;99.90;;;;;;5133231;27;20811;-73
2021/03/14 13:53:12;;;;;;;4.50;2.30;;;7.90;99.90;;;;;;5137252;27;20445;-75
2021/03/14 13:55:59;;;;;;;0.60;0.60;;;8.00;99.90;;;;;;5130773;27;20461;-76
2021/03/14 13:58:47;;;;;;;1.30;0.87;;;8.10;99.90;;;;;;5128747;27;20884;-77
2021/03/14 14:01:35;;;;;;;0.73;0.60;;;7.90;99.90;;;;;;5125968;27;20470;-75
2021/03/14 14:04:24;;;;;;;1.30;0.50;;;7.80;99.90;;;;;;5119292;27;20532;-75
2021/03/14 14:07:12;;;;;;;0.83;0.50;;;8.10;99.90;;;;;;5118356;28;20537;-75
2021/03/14 14:09:59;;;;;;;0.67;0.60;;;8.00;99.90;;;;;;5125058;27;20457;-75
2021/03/14 14:12:47;;;;;;;0.60;0.50;;;7.70;99.90;;;;;;5129840;28;20435;-76
2021/03/14 14:15:35;;;;;;;0.50;0.50;;;7.60;99.90;;;;;;5124961;28;20448;-76
2021/03/14 14:18:23;;;;;;;0.50;0.50;;;7.50;99.90;;;;;;5124837;28;20470;-74
2021/03/14 14:21:12;;;;;;;0.40;0.40;;;7.90;99.90;;;;;;5128513;28;20441;-75
2021/03/14 14:24:02;;;;;;;0.50;0.50;;;7.90;99.90;;;;;;5123079;27;20436;-75
2021/03/14 14:26:50;;;;;;;0.60;0.60;;;8.00;99.90;;;;;;5129474;28;20453;-76
2021/03/14 14:29:38;;;;;;;0.63;0.63;;;8.00;99.90;;;;;;5116178;28;20432;-76
2021/03/14 14:32:26;;;;;;;0.70;0.70;;;8.00;99.90;;;;;;5132088;28;20446;-77
2021/03/14 14:35:14;;;;;;;0.80;0.80;;;8.10;99.90;;;;;;5130081;28;20546;-76
2021/03/14 14:38:03;;;;;;;1.07;0.60;;;8.10;99.90;;;;;;5125857;28;20465;-74
2021/03/14 14:40:50;;;;;;;0.70;0.67;;;8.10;99.90;;;;;;5118107;27;21169;-77
2021/03/14 14:43:38;;;;;;;0.80;0.60;;;8.20;99.90;;;;;;5127458;28;20998;-75
2021/03/14 14:46:26;;;;;;;0.60;0.60;;;8.30;99.90;;;;;;5115917;28;20605;-76
2021/03/14 14:49:14;;;;;;;1.03;0.80;;;8.30;99.90;;;;;;5122702;27;20468;-74
2021/03/14 14:52:02;;;;;;;0.57;0.57;;;8.40;99.90;;;;;;5118755;27;20440;-75
2021/03/14 14:54:50;;;;;;;0.47;0.47;;;8.40;99.90;;;;;;5129397;28;20468;-77